Time;durP1;ratioP1;P1;durP2;ratioP2;P2;SDS_P1;SDS_P2;PMS_P1;PMS_P2;Temp;Humidity;BMP_temperature;BMP_pressure;BME280_temperature;BME280_humidity;BME280_pressure;Samples;Min_cycle;Max_cycle;Signal;HPM_P1;HPM_P2
2024/04/14 00:02:06;;;;;;;7.23;2.87;;;18.70;99.90;;;;;;5381836;26;20340;-73
2024/04/14 00:04:32;;;;;;;2.90;2.70;;;18.60;99.90;;;;;;5380466;26;20221;-72
2024/04/14 00:06:57;;;;;;;2.83;2.30;;;18.50;99.90;;;;;;5381906;26;20346;-72
2024/04/14 00:09:23;;;;;;;2.83;2.40;;;18.50;99.90;;;;;;5381548;26;20285;-73
2024/04/14 00:11:48;;;;;;;7.20;2.57;;;18.40;99.90;;;;;;5381090;26;20214;-73
2024/04/14 00:14:14;;;;;;;4.27;2.43;;;18.30;99.90;;;;;;5374002;26;20225;-72
2024/04/14 00:16:39;;;;;;;2.70;2.50;;;18.30;99.90;;;;;;5372878;26;20658;-72
2024/04/14 00:19:05;;;;;;;3.37;3.00;;;18.30;99.90;;;;;;5372385;26;20285;-73
2024/04/14 00:21:30;;;;;;;3.70;2.63;;;18.20;99.90;;;;;;5380600;26;20272;-72
2024/04/14 00:23:56;;;;;;;3.30;2.43;;;18.20;99.90;;;;;;5381376;26;20603;-72
2024/04/14 00:26:22;;;;;;;3.00;1.90;;;18.10;99.90;;;;;;5382010;26;20252;-73
2024/04/14 00:28:48;;;;;;;2.40;2.20;;;18.10;99.90;;;;;;5381414;26;20261;-73
2024/04/14 00:31:14;;;;;;;3.43;2.10;;;18.00;99.90;;;;;;5381469;26;20339;-72
2024/04/14 00:33:40;;;;;;;1.83;1.73;;;17.90;99.90;;;;;;5380061;26;20463;-72
2024/04/14 00:36:06;;;;;;;2.57;1.60;;;17.80;99.90;;;;;;5379822;26;20495;-72
2024/04/14 00:38:31;;;;;;;2.20;2.00;;;17.80;99.90;;;;;;5381523;26;20240;-72
2024/04/14 00:40:57;;;;;;;1.73;1.57;;;17.60;99.90;;;;;;5381371;26;20222;-72
2024/04/14 00:43:23;;;;;;;2.67;1.83;;;17.60;99.90;;;;;;5381848;26;20319;-72
2024/04/14 00:45:49;;;;;;;2.30;1.70;;;17.50;99.90;;;;;;5381588;26;20492;-73
2024/04/14 00:48:15;;;;;;;2.77;2.20;;;17.40;99.90;;;;;;5381521;26;20440;-72
2024/04/14 00:50:43;;;;;;;4.00;2.03;;;17.30;99.90;;;;;;5380894;26;20359;-72
2024/04/14 00:53:09;;;;;;;3.67;1.93;;;17.20;99.90;;;;;;5381407;26;20292;-72
2024/04/14 00:55:37;;;;;;;1.90;1.47;;;17.20;99.90;;;;;;5381538;26;21008;-72
2024/04/14 00:58:03;;;;;;;2.70;1.53;;;17.00;99.90;;;;;;5381438;26;20492;-72
2024/04/14 01:00:29;;;;;;;1.40;1.30;;;17.00;99.90;;;;;;5379248;26;20958;-72
2024/04/14 01:02:55;;;;;;;1.43;1.23;;;16.90;99.90;;;;;;5381336;26;20205;-72
2024/04/14 01:05:27;;;;;;;2.60;1.57;;;16.80;99.90;;;;;;5381225;26;20526;-72
2024/04/14 01:07:54;;;;;;;1.30;1.20;;;16.70;99.90;;;;;;5381393;26;20881;-72
2024/04/14 01:10:20;;;;;;;2.33;1.10;;;16.60;99.90;;;;;;5380734;26;20909;-72
2024/04/14 01:12:45;;;;;;;1.23;1.00;;;16.50;99.90;;;;;;5380611;26;20474;-73
2024/04/14 01:15:11;;;;;;;1.37;1.27;;;16.50;99.90;;;;;;5381275;26;20499;-72
2024/04/14 01:17:37;;;;;;;2.13;1.40;;;16.40;99.90;;;;;;5380782;26;20218;-73
2024/04/14 01:20:04;;;;;;;2.20;1.40;;;16.30;99.90;;;;;;5380427;26;20496;-72
2024/04/14 01:22:29;;;;;;;2.03;1.40;;;16.30;99.90;;;;;;5381192;26;20273;-72
2024/04/14 01:25:08;;;;;;;2.40;1.23;;;16.20;99.90;;;;;;5381268;26;20554;-71
2024/04/14 01:27:34;;;;;;;1.37;1.27;;;16.10;99.90;;;;;;5381090;26;20712;-72
2024/04/14 01:29:59;;;;;;;1.30;1.20;;;16.10;99.90;;;;;;5380139;26;20475;-72
2024/04/14 01:32:25;;;;;;;2.27;1.50;;;16.00;99.80;;;;;;5380944;26;20566;-72
2024/04/14 01:34:51;;;;;;;3.20;1.53;;;16.00;99.50;;;;;;5381245;26;20213;-72
2024/04/14 01:37:16;;;;;;;1.47;1.37;;;15.90;99.40;;;;;;5380259;26;20217;-73
2024/04/14 01:39:42;;;;;;;1.20;1.10;;;15.90;99.10;;;;;;5380562;26;20570;-72
2024/04/14 01:42:07;;;;;;;1.67;1.13;;;15.80;98.90;;;;;;5381121;26;20612;-72
2024/04/14 01:44:33;;;;;;;1.77;1.40;;;15.70;98.80;;;;;;5380522;26;20259;-71
2024/04/14 01:46:59;;;;;;;2.40;1.40;;;15.70;98.80;;;;;;5381129;26;20244;-71
2024/04/14 01:49:25;;;;;;;3.20;1.47;;;15.60;98.50;;;;;;5380321;26;20443;-72
2024/04/14 01:51:50;;;;;;;7.70;1.30;;;15.60;98.30;;;;;;5380796;26;20214;-71
2024/04/14 01:54:16;;;;;;;1.10;1.00;;;15.50;98.10;;;;;;5380718;26;20218;-72
2024/04/14 01:56:41;;;;;;;1.63;1.23;;;15.50;98.00;;;;;;5380619;26;20213;-72
2024/04/14 01:59:07;;;;;;;1.23;1.00;;;15.50;97.70;;;;;;5380057;26;20248;-72
2024/04/14 02:01:33;;;;;;;2.20;1.30;;;15.40;97.50;;;;;;5380101;26;20264;-72
2024/04/14 02:03:58;;;;;;;1.20;1.10;;;15.40;97.40;;;;;;5380418;26;20213;-72
2024/04/14 02:06:24;;;;;;;1.97;1.47;;;15.30;97.50;;;;;;5378757;26;20249;-71
2024/04/14 02:08:51;;;;;;;1.30;1.20;;;15.30;97.60;;;;;;5380505;26;20294;-72
2024/04/14 02:11:17;;;;;;;1.17;1.07;;;15.20;97.70;;;;;;5379893;26;20237;-72
2024/04/14 02:13:42;;;;;;;1.40;1.27;;;15.20;97.60;;;;;;5380499;26;20492;-73
2024/04/14 02:16:08;;;;;;;2.50;1.50;;;15.10;97.70;;;;;;5383248;26;20209;-71
2024/04/14 02:18:34;;;;;;;1.83;1.40;;;15.10;97.60;;;;;;5380360;26;20223;-71
2024/04/14 02:20:59;;;;;;;1.80;1.63;;;15.00;97.50;;;;;;5379732;26;20222;-73
2024/04/14 02:23:26;;;;;;;1.90;1.80;;;15.00;97.50;;;;;;5380195;26;20217;-73
2024/04/14 02:25:58;;;;;;;1.60;1.43;;;14.90;97.60;;;;;;5378791;26;20326;-72
2024/04/14 02:28:24;;;;;;;3.10;1.33;;;14.90;97.50;;;;;;5378273;26;21010;-71
2024/04/14 02:30:51;;;;;;;1.23;1.13;;;14.90;97.50;;;;;;5379696;26;20460;-71
2024/04/14 02:33:16;;;;;;;1.77;1.40;;;14.80;97.70;;;;;;5378194;26;20464;-71
2024/04/14 02:36:00;;;;;;;2.07;1.20;;;14.80;97.80;;;;;;5380142;26;20496;-71
2024/04/14 02:38:26;;;;;;;1.83;1.30;;;14.70;98.10;;;;;;5380036;26;20209;-72
2024/04/14 02:41:03;;;;;;;1.97;1.40;;;14.70;98.40;;;;;;5377670;26;20472;-71
2024/04/14 02:43:30;;;;;;;4.00;1.40;;;14.70;98.80;;;;;;5379894;26;20487;-71
2024/04/14 02:45:56;;;;;;;1.87;1.50;;;14.60;99.00;;;;;;5380208;26;20494;-71
2024/04/14 02:48:22;;;;;;;2.73;1.27;;;14.60;99.50;;;;;;5379882;26;20900;-71
2024/04/14 02:50:47;;;;;;;1.63;1.53;;;14.50;99.80;;;;;;5379437;26;20463;-72
2024/04/14 02:53:13;;;;;;;1.60;1.50;;;14.50;99.90;;;;;;5377598;26;20487;-71
2024/04/14 02:55:39;;;;;;;1.80;1.30;;;14.50;99.90;;;;;;5379824;26;20244;-71
2024/04/14 02:58:07;;;;;;;4.47;1.50;;;14.40;99.90;;;;;;5379711;26;20812;-71
2024/04/14 03:00:33;;;;;;;1.20;0.90;;;14.40;99.90;;;;;;5378012;26;20508;-71
2024/04/14 03:02:59;;;;;;;1.30;1.20;;;14.30;99.90;;;;;;5377980;26;20436;-72
2024/04/14 03:05:25;;;;;;;1.60;1.30;;;14.30;99.90;;;;;;5379282;26;20319;-71
2024/04/14 03:07:51;;;;;;;2.00;1.80;;;14.30;99.90;;;;;;5379715;26;20221;-71
2024/04/14 03:10:17;;;;;;;1.47;1.30;;;14.20;99.90;;;;;;5378712;26;20456;-71
2024/04/14 03:12:44;;;;;;;1.30;1.20;;;14.20;99.90;;;;;;5379406;26;20443;-71
2024/04/14 03:15:11;;;;;;;3.13;1.90;;;14.20;99.90;;;;;;5379421;26;20252;-72
2024/04/14 03:17:37;;;;;;;1.60;1.50;;;14.10;99.90;;;;;;5377435;26;20448;-71
2024/04/14 03:20:05;;;;;;;1.80;1.40;;;14.10;99.90;;;;;;5378860;26;20556;-71
2024/04/14 03:22:31;;;;;;;1.97;1.57;;;14.10;99.90;;;;;;5379080;26;20850;-72
2024/04/14 03:24:56;;;;;;;1.93;1.57;;;14.10;99.90;;;;;;5379003;26;20443;-72
2024/04/14 03:27:22;;;;;;;2.63;1.63;;;14.00;99.90;;;;;;5379383;26;20218;-72
2024/04/14 03:29:47;;;;;;;3.70;1.43;;;14.00;99.90;;;;;;5378310;26;20764;-71
2024/04/14 03:32:14;;;;;;;3.80;1.37;;;14.00;99.90;;;;;;5379021;26;20599;-71
2024/04/14 03:34:39;;;;;;;3.67;1.57;;;13.90;99.90;;;;;;5379298;26;20269;-71
2024/04/14 03:37:06;;;;;;;3.73;3.23;;;13.90;99.90;;;;;;5381031;26;20436;-72
2024/04/14 03:39:32;;;;;;;5.40;3.73;;;13.80;99.90;;;;;;5382035;26;20214;-72
2024/04/14 03:41:57;;;;;;;3.70;1.80;;;13.90;99.90;;;;;;5382720;26;20497;-71
2024/04/14 03:44:23;;;;;;;3.90;1.33;;;13.80;99.90;;;;;;5382406;26;20262;-71
2024/04/14 03:46:48;;;;;;;2.77;1.50;;;13.80;99.90;;;;;;5382434;26;20213;-71
2024/04/14 03:49:14;;;;;;;2.77;1.70;;;13.70;99.90;;;;;;5381978;26;20282;-71
2024/04/14 03:51:40;;;;;;;21.37;9.20;;;13.70;99.90;;;;;;5382434;26;20272;-71
2024/04/14 03:54:05;;;;;;;10.93;8.40;;;13.60;99.90;;;;;;5382079;26;20251;-72
2024/04/14 03:56:31;;;;;;;7.90;4.10;;;13.60;99.90;;;;;;5382368;26;20544;-71
2024/04/14 03:58:56;;;;;;;2.37;2.10;;;13.60;99.90;;;;;;5382483;26;20895;-72
2024/04/14 04:01:22;;;;;;;1.60;1.47;;;13.60;99.90;;;;;;5381777;26;20322;-71
2024/04/14 04:03:51;;;;;;;3.30;1.50;;;13.60;99.90;;;;;;5382226;26;20218;-72
2024/04/14 04:06:16;;;;;;;2.20;1.60;;;13.50;99.90;;;;;;5382133;26;20227;-72
2024/04/14 04:08:44;;;;;;;3.00;1.50;;;13.50;99.90;;;;;;5382162;26;20574;-71
2024/04/14 04:11:09;;;;;;;1.40;1.30;;;13.50;99.90;;;;;;5380046;26;20272;-71
2024/04/14 04:13:35;;;;;;;1.97;1.43;;;13.50;99.90;;;;;;5380387;26;20796;-72
2024/04/14 04:16:05;;;;;;;2.20;1.40;;;13.50;99.90;;;;;;5382030;26;20210;-71
2024/04/14 04:18:31;;;;;;;3.27;1.40;;;13.60;99.90;;;;;;5381693;26;20700;-72
2024/04/14 04:20:59;;;;;;;1.97;1.43;;;13.60;99.90;;;;;;5380955;26;20463;-72
2024/04/14 04:23:26;;;;;;;1.80;1.37;;;13.60;99.90;;;;;;5381112;26;20443;-71
2024/04/14 04:25:54;;;;;;;1.53;1.27;;;13.60;99.90;;;;;;5381860;26;20504;-71
2024/04/14 04:28:20;;;;;;;2.10;1.50;;;13.60;99.90;;;;;;5381771;26;20491;-71
2024/04/14 04:30:46;;;;;;;3.60;1.40;;;13.60;99.90;;;;;;5379450;26;20958;-72
2024/04/14 04:33:11;;;;;;;2.30;1.67;;;13.60;99.90;;;;;;5381770;26;20243;-72
2024/04/14 04:35:37;;;;;;;1.80;1.37;;;13.60;99.90;;;;;;5381771;26;20222;-71
2024/04/14 04:38:02;;;;;;;3.60;2.27;;;13.70;99.90;;;;;;5381808;26;20256;-71
2024/04/14 04:40:28;;;;;;;5.40;2.60;;;13.70;99.90;;;;;;5381853;26;20348;-71
2024/04/14 04:42:53;;;;;;;1.67;1.57;;;13.70;99.90;;;;;;5381963;26;20222;-72
2024/04/14 04:45:19;;;;;;;2.90;1.80;;;13.80;99.90;;;;;;5381626;26;20257;-72
2024/04/14 04:47:46;;;;;;;1.93;1.50;;;13.80;99.90;;;;;;5380499;26;20697;-71
2024/04/14 04:50:11;;;;;;;1.73;1.63;;;13.80;99.90;;;;;;5380892;26;20239;-72
2024/04/14 04:52:37;;;;;;;3.60;1.40;;;13.70;99.90;;;;;;5381152;26;20436;-72
2024/04/14 04:55:03;;;;;;;3.13;2.00;;;13.70;99.90;;;;;;5381465;26;20318;-72
2024/04/14 04:57:29;;;;;;;1.43;1.20;;;13.70;99.90;;;;;;5381576;26;20307;-71
2024/04/14 04:59:54;;;;;;;2.57;1.40;;;13.60;99.90;;;;;;5380994;26;20225;-72
2024/04/14 05:02:20;;;;;;;3.33;2.50;;;13.70;99.90;;;;;;5381330;26;20444;-72
2024/04/14 05:04:45;;;;;;;2.93;1.60;;;13.60;99.90;;;;;;5381549;26;20206;-72
2024/04/14 05:07:11;;;;;;;2.37;2.03;;;13.70;99.90;;;;;;5381722;26;20322;-72
2024/04/14 05:09:36;;;;;;;4.97;2.03;;;13.70;99.90;;;;;;5380807;26;20221;-71
2024/04/14 05:12:02;;;;;;;13.93;2.20;;;13.70;99.90;;;;;;5381211;26;20210;-72
2024/04/14 05:14:28;;;;;;;2.17;1.80;;;13.80;99.90;;;;;;5381182;26;20261;-71
2024/04/14 05:16:54;;;;;;;1.57;1.43;;;13.80;99.90;;;;;;5381207;26;20436;-72
2024/04/14 05:19:19;;;;;;;4.10;1.67;;;13.90;99.90;;;;;;5380613;26;20248;-72
2024/04/14 05:21:45;;;;;;;4.10;1.80;;;14.00;99.90;;;;;;5381141;26;20217;-71
2024/04/14 05:24:11;;;;;;;2.70;2.30;;;14.10;99.90;;;;;;5381104;26;20696;-72
2024/04/14 05:26:37;;;;;;;13.70;3.80;;;14.20;99.90;;;;;;5381028;26;20484;-72
2024/04/14 05:29:03;;;;;;;11.63;3.90;;;14.20;99.90;;;;;;5381140;26;20440;-72
2024/04/14 05:31:28;;;;;;;3.03;2.23;;;14.40;99.90;;;;;;5380653;26;20515;-72
2024/04/14 05:33:56;;;;;;;2.57;2.37;;;14.50;99.90;;;;;;5380943;26;20214;-71
2024/04/14 05:36:22;;;;;;;3.13;1.97;;;14.50;99.90;;;;;;5381225;26;20205;-73
2024/04/14 05:38:48;;;;;;;5.07;2.13;;;14.60;99.90;;;;;;5381095;26;20505;-73
2024/04/14 05:41:16;;;;;;;2.20;1.93;;;14.70;99.90;;;;;;5380667;26;20310;-73
2024/04/14 05:43:42;;;;;;;4.50;2.40;;;14.80;99.90;;;;;;5380698;26;20503;-73
2024/04/14 05:46:08;;;;;;;3.83;2.27;;;14.90;99.90;;;;;;5380524;26;20545;-74
2024/04/14 05:48:33;;;;;;;2.30;1.70;;;15.00;99.90;;;;;;5380524;26;20260;-73
2024/04/14 05:50:59;;;;;;;4.37;2.23;;;15.10;99.90;;;;;;5380259;26;20765;-73
2024/04/14 05:53:24;;;;;;;3.53;1.97;;;15.30;99.90;;;;;;5380719;26;20709;-74
2024/04/14 05:55:50;;;;;;;3.13;2.03;;;15.40;99.90;;;;;;5380757;26;20586;-73
2024/04/14 05:58:15;;;;;;;2.20;1.60;;;15.60;99.90;;;;;;5378800;26;20237;-73
2024/04/14 06:00:41;;;;;;;2.10;1.67;;;15.70;99.90;;;;;;5379958;26;20717;-72
2024/04/14 06:03:07;;;;;;;5.37;2.90;;;15.70;99.90;;;;;;5380407;26;20226;-73
2024/04/14 06:05:33;;;;;;;3.60;2.50;;;15.90;99.90;;;;;;5380411;26;20214;-72
2024/04/14 06:07:58;;;;;;;6.97;2.40;;;15.90;99.90;;;;;;5380172;26;20511;-72
2024/04/14 06:10:24;;;;;;;4.37;2.30;;;16.00;99.90;;;;;;5379730;26;20221;-74
2024/04/14 06:12:50;;;;;;;10.17;3.17;;;16.00;99.90;;;;;;5380354;26;20260;-72
2024/04/14 06:15:16;;;;;;;7.73;2.70;;;16.10;99.90;;;;;;5380162;26;20213;-75
2024/04/14 06:17:41;;;;;;;3.77;2.10;;;16.10;99.90;;;;;;5379733;26;20209;-72
2024/04/14 06:20:07;;;;;;;4.87;2.77;;;16.20;99.90;;;;;;5379139;26;20280;-73
2024/04/14 06:22:33;;;;;;;10.20;3.00;;;16.40;99.90;;;;;;5381320;26;20246;-72
2024/04/14 06:24:58;;;;;;;3.70;2.47;;;16.50;99.90;;;;;;5379626;26;20452;-72
2024/04/14 06:27:24;;;;;;;4.10;2.83;;;16.70;99.90;;;;;;5381069;26;20229;-72
2024/04/14 06:29:49;;;;;;;4.17;2.37;;;16.80;99.90;;;;;;5378613;26;20234;-71
2024/04/14 06:32:15;;;;;;;9.30;3.80;;;16.90;99.90;;;;;;5379020;26;20273;-71
2024/04/14 06:34:41;;;;;;;6.00;3.37;;;17.10;99.90;;;;;;5380822;26;20327;-72
2024/04/14 06:37:06;;;;;;;2.93;2.60;;;17.40;99.90;;;;;;5380938;26;20603;-72
2024/04/14 06:39:32;;;;;;;5.00;2.90;;;17.50;99.90;;;;;;5380411;26;20709;-72
2024/04/14 06:41:59;;;;;;;12.20;3.90;;;17.80;99.90;;;;;;5380485;26;20230;-72
2024/04/14 06:44:24;;;;;;;5.30;3.10;;;17.90;99.90;;;;;;5378820;26;20229;-72
2024/04/14 06:46:50;;;;;;;4.40;3.00;;;18.20;99.90;;;;;;5380483;26;20570;-72
2024/04/14 06:49:15;;;;;;;5.73;3.40;;;18.50;99.90;;;;;;5380460;26;20221;-72
2024/04/14 06:51:41;;;;;;;3.53;2.60;;;18.80;99.90;;;;;;5380578;26;20260;-74
2024/04/14 06:54:06;;;;;;;3.37;2.27;;;19.00;99.90;;;;;;5380259;26;20221;-73
2024/04/14 06:56:35;;;;;;;5.87;2.90;;;19.30;99.90;;;;;;5380133;26;20214;-72
2024/04/14 06:59:01;;;;;;;6.50;2.70;;;19.60;99.90;;;;;;5380327;26;20217;-72
2024/04/14 07:01:26;;;;;;;3.80;2.73;;;20.00;99.90;;;;;;5379627;26;20511;-74
2024/04/14 07:03:52;;;;;;;4.10;2.40;;;20.30;99.90;;;;;;5381373;26;20444;-72
2024/04/14 07:06:17;;;;;;;3.57;2.30;;;20.70;99.90;;;;;;5380982;26;20213;-73
2024/04/14 07:08:43;;;;;;;3.23;2.70;;;21.10;99.90;;;;;;5380371;26;20218;-73
2024/04/14 07:11:09;;;;;;;6.60;3.20;;;21.80;98.80;;;;;;5378775;26;20249;-72
2024/04/14 07:13:35;;;;;;;7.93;3.10;;;22.40;94.60;;;;;;5381597;26;20443;-73
2024/04/14 07:16:00;;;;;;;7.93;2.67;;;22.90;91.20;;;;;;5383321;26;20443;-73
2024/04/14 07:18:26;;;;;;;4.33;2.90;;;23.40;85.70;;;;;;5381911;26;20751;-72
2024/04/14 07:20:52;;;;;;;3.20;2.83;;;23.90;80.30;;;;;;5383145;26;20225;-73
2024/04/14 07:23:17;;;;;;;4.17;2.60;;;24.20;75.50;;;;;;5383341;26;20252;-72
2024/04/14 07:25:43;;;;;;;4.23;2.57;;;24.70;71.50;;;;;;5381558;26;20221;-73
2024/04/14 07:28:08;;;;;;;5.13;2.53;;;25.10;67.60;;;;;;5383197;26;20255;-73
2024/04/14 07:30:34;;;;;;;4.07;2.20;;;25.40;64.70;;;;;;5381045;26;20307;-73
2024/04/14 07:32:59;;;;;;;4.53;2.60;;;25.50;61.10;;;;;;5383476;26;20277;-73
2024/04/14 07:35:25;;;;;;;3.90;2.40;;;25.60;59.50;;;;;;5383358;26;20257;-73
2024/04/14 07:37:50;;;;;;;5.23;2.67;;;25.70;58.90;;;;;;5383358;26;20218;-72
2024/04/14 07:40:16;;;;;;;6.30;3.27;;;25.70;56.80;;;;;;5380864;26;20272;-73
2024/04/14 07:42:41;;;;;;;4.80;2.67;;;25.30;55.40;;;;;;5382568;26;20613;-73
2024/04/14 07:45:07;;;;;;;4.60;2.27;;;25.20;55.90;;;;;;5381070;26;20225;-73
2024/04/14 07:47:33;;;;;;;9.37;3.73;;;25.40;56.30;;;;;;5383056;26;20259;-73
2024/04/14 07:49:58;;;;;;;6.60;2.47;;;25.50;54.40;;;;;;5380736;26;20689;-73
2024/04/14 07:52:24;;;;;;;3.67;2.67;;;25.70;55.00;;;;;;5382920;26;20217;-73
2024/04/14 07:54:49;;;;;;;4.20;3.00;;;25.60;54.10;;;;;;5382983;26;20209;-73
2024/04/14 07:57:15;;;;;;;7.30;3.43;;;25.70;53.90;;;;;;5383067;26;20210;-73
2024/04/14 07:59:40;;;;;;;4.80;2.80;;;25.90;53.60;;;;;;5382054;26;20277;-74
2024/04/14 08:02:06;;;;;;;3.70;2.50;;;25.90;52.00;;;;;;5380713;26;20225;-73
2024/04/14 08:04:31;;;;;;;2.63;2.43;;;26.40;52.80;;;;;;5382391;26;20268;-73
2024/04/14 08:06:57;;;;;;;5.20;2.80;;;26.80;52.80;;;;;;5380299;26;20229;-72
2024/04/14 08:09:22;;;;;;;7.60;2.90;;;26.40;50.60;;;;;;5381363;26;20221;-73
2024/04/14 08:11:48;;;;;;;10.07;3.00;;;26.70;51.10;;;;;;5380234;26;20256;-73
2024/04/14 08:14:14;;;;;;;4.13;2.43;;;26.80;49.90;;;;;;5382049;26;20221;-74
2024/04/14 08:16:40;;;;;;;5.23;2.33;;;26.90;49.50;;;;;;5382322;26;20451;-72
2024/04/14 08:19:06;;;;;;;7.07;3.07;;;27.10;49.60;;;;;;5381993;26;20603;-73
2024/04/14 08:21:31;;;;;;;5.40;2.60;;;27.10;48.80;;;;;;5379828;26;20455;-73
2024/04/14 08:23:57;;;;;;;5.10;2.60;;;27.00;47.90;;;;;;5380484;26;20213;-73
2024/04/14 08:26:22;;;;;;;4.67;2.13;;;27.10;47.70;;;;;;5382151;26;20594;-73
2024/04/14 08:28:48;;;;;;;4.63;2.93;;;27.20;47.70;;;;;;5381716;26;20210;-72
2024/04/14 08:31:13;;;;;;;4.00;2.20;;;28.40;47.70;;;;;;5381416;26;20342;-73
2024/04/14 08:33:39;;;;;;;3.03;2.20;;;29.30;46.00;;;;;;5380527;26;20230;-73
2024/04/14 08:36:05;;;;;;;4.27;2.23;;;29.70;44.40;;;;;;5382053;26;20225;-73
2024/04/14 08:38:31;;;;;;;3.87;2.00;;;30.40;43.50;;;;;;5381721;26;20325;-72
2024/04/14 08:40:57;;;;;;;3.47;2.17;;;30.40;41.80;;;;;;5379407;26;20281;-73
2024/04/14 08:43:23;;;;;;;2.77;2.30;;;30.40;41.30;;;;;;5381739;26;20217;-72
2024/04/14 08:45:50;;;;;;;2.80;2.13;;;30.30;40.60;;;;;;5381553;26;20487;-73
2024/04/14 08:48:17;;;;;;;3.70;1.80;;;30.60;40.80;;;;;;5381815;26;20225;-72
2024/04/14 08:50:44;;;;;;;5.07;2.23;;;31.70;41.00;;;;;;5381130;26;20508;-72
2024/04/14 08:53:11;;;;;;;4.50;2.07;;;32.70;39.10;;;;;;5381675;26;20439;-72
2024/04/14 08:55:38;;;;;;;3.70;1.83;;;33.50;38.20;;;;;;5381527;26;20484;-73
2024/04/14 08:58:04;;;;;;;2.40;1.87;;;34.70;37.40;;;;;;5379522;26;20495;-73
2024/04/14 09:00:31;;;;;;;3.20;1.90;;;35.60;36.10;;;;;;5380997;26;20472;-73
2024/04/14 09:02:57;;;;;;;3.00;2.30;;;36.70;34.10;;;;;;5381106;26;20796;-72
2024/04/14 09:05:23;;;;;;;2.47;2.27;;;37.90;32.60;;;;;;5381309;26;20436;-73
2024/04/14 09:07:56;;;;;;;2.80;1.90;;;38.80;30.30;;;;;;5379434;26;20229;-73
2024/04/14 09:10:24;;;;;;;4.30;1.90;;;39.40;29.00;;;;;;5380891;26;20567;-73
2024/04/14 09:12:50;;;;;;;5.80;2.20;;;40.90;29.00;;;;;;5379472;26;20835;-74
2024/04/14 09:15:15;;;;;;;2.90;2.67;;;41.70;26.60;;;;;;5381352;26;20533;-74
2024/04/14 09:17:42;;;;;;;1.90;1.60;;;41.70;25.40;;;;;;5381219;26;20217;-74
2024/04/14 09:20:07;;;;;;;2.23;1.80;;;42.00;25.30;;;;;;5379234;26;20610;-74
2024/04/14 09:22:33;;;;;;;3.00;1.67;;;42.50;24.90;;;;;;5381207;26;20401;-74
2024/04/14 09:24:58;;;;;;;1.93;1.60;;;43.10;24.50;;;;;;5379402;26;20257;-74
2024/04/14 09:27:24;;;;;;;2.70;2.40;;;43.00;22.00;;;;;;5381193;26;20268;-74
2024/04/14 09:29:50;;;;;;;5.00;2.10;;;43.40;22.90;;;;;;5380730;26;20229;-73
2024/04/14 09:32:15;;;;;;;2.17;1.60;;;43.00;22.70;;;;;;5382679;26;20292;-74
2024/04/14 09:34:41;;;;;;;4.60;2.13;;;43.30;23.30;;;;;;5380566;26;20214;-74
2024/04/14 09:37:08;;;;;;;2.10;1.90;;;43.40;23.10;;;;;;5381238;26;20681;-73
2024/04/14 09:39:34;;;;;;;2.57;2.23;;;43.80;22.60;;;;;;5380497;26;20222;-74
2024/04/14 09:42:00;;;;;;;3.93;2.20;;;44.00;22.50;;;;;;5379262;26;20463;-73
2024/04/14 09:44:27;;;;;;;2.97;1.97;;;43.10;22.30;;;;;;5379332;26;20670;-74
2024/04/14 09:46:55;;;;;;;2.07;1.60;;;42.50;22.30;;;;;;5378717;26;20452;-74
2024/04/14 09:49:25;;;;;;;2.93;1.80;;;43.00;22.80;;;;;;5380574;26;20504;-73
2024/04/14 09:51:54;;;;;;;2.60;1.63;;;44.10;22.60;;;;;;5378951;26;20663;-74
2024/04/14 09:54:21;;;;;;;2.37;2.17;;;44.50;21.70;;;;;;5380783;26;20447;-74
2024/04/14 09:56:47;;;;;;;3.00;1.90;;;44.60;21.80;;;;;;5373698;26;20980;-73
2024/04/14 09:59:12;;;;;;;5.20;2.53;;;44.60;21.80;;;;;;5345872;26;20540;-74
2024/04/14 10:01:43;;;;;;;2.30;2.10;;;42.90;19.90;;;;;;5344185;26;20231;-75
2024/04/14 10:04:09;;;;;;;3.03;1.80;;;42.30;21.30;;;;;;5343972;26;20691;-74
2024/04/14 10:06:37;;;;;;;2.90;2.70;;;42.30;21.90;;;;;;5345790;26;20469;-74
2024/04/14 10:09:03;;;;;;;1.80;1.70;;;42.70;22.40;;;;;;5343842;26;20473;-73
2024/04/14 10:11:31;;;;;;;2.40;1.83;;;43.40;22.20;;;;;;5345184;26;21060;-73
2024/04/14 10:13:58;;;;;;;1.93;1.80;;;44.20;21.50;;;;;;5345834;26;20222;-73
2024/04/14 10:16:24;;;;;;;4.87;2.00;;;44.40;21.00;;;;;;5345421;26;20444;-73
2024/04/14 10:18:50;;;;;;;3.30;1.93;;;44.20;20.60;;;;;;5345516;26;20261;-73
2024/04/14 10:21:18;;;;;;;3.00;1.23;;;42.60;20.30;;;;;;5344993;26;20465;-75
2024/04/14 10:23:55;;;;;;;1.70;1.50;;;40.70;21.10;;;;;;5345425;26;20713;-73
2024/04/14 10:26:20;;;;;;;1.97;1.70;;;39.60;22.30;;;;;;5345391;26;20441;-73
2024/04/14 10:28:54;;;;;;;1.93;1.30;;;39.00;22.80;;;;;;5345333;26;20552;-73
2024/04/14 10:31:28;;;;;;;3.10;1.53;;;38.60;22.80;;;;;;5344939;26;20223;-74
2024/04/14 10:34:21;;;;;;;2.80;1.73;;;38.40;23.40;;;;;;5345431;26;20436;-73
2024/04/14 10:36:55;;;;;;;6.53;1.77;;;38.60;22.80;;;;;;5343575;26;20461;-73
2024/04/14 10:39:21;;;;;;;2.13;1.57;;;38.40;22.90;;;;;;5344891;26;20515;-73
2024/04/14 10:41:47;;;;;;;1.97;1.77;;;38.10;22.50;;;;;;5345049;26;20445;-73
2024/04/14 10:44:21;;;;;;;2.23;1.90;;;37.00;22.70;;;;;;5345081;26;20496;-73
2024/04/14 10:46:47;;;;;;;3.23;1.97;;;37.90;23.80;;;;;;5343856;26;20248;-73
2024/04/14 10:49:12;;;;;;;2.77;1.90;;;39.30;23.10;;;;;;5344915;26;20793;-73
2024/04/14 10:51:38;;;;;;;2.23;1.80;;;40.80;23.00;;;;;;5344944;26;20231;-73
2024/04/14 10:54:04;;;;;;;1.90;1.60;;;41.90;22.30;;;;;;5345034;26;20602;-73
2024/04/14 10:56:30;;;;;;;3.00;2.33;;;42.40;21.80;;;;;;5344826;26;20795;-73
2024/04/14 10:58:56;;;;;;;3.50;2.67;;;42.60;21.30;;;;;;5344916;26;20456;-73
2024/04/14 11:01:22;;;;;;;5.27;2.13;;;43.20;21.70;;;;;;5344409;26;20339;-75
2024/04/14 11:03:48;;;;;;;2.67;2.37;;;43.60;21.20;;;;;;5344836;26;20445;-74
2024/04/14 11:06:14;;;;;;;2.80;2.20;;;43.80;21.00;;;;;;5344486;26;20445;-73
2024/04/14 11:08:41;;;;;;;2.43;2.23;;;42.90;20.50;;;;;;5344892;26;20577;-73
2024/04/14 11:11:07;;;;;;;2.53;2.33;;;41.50;20.70;;;;;;5344006;26;20460;-73
2024/04/14 11:13:33;;;;;;;2.70;2.00;;;39.90;21.30;;;;;;5344609;26;20835;-74
2024/04/14 11:15:59;;;;;;;3.80;2.20;;;39.50;22.00;;;;;;5344596;26;20441;-73
2024/04/14 11:18:31;;;;;;;4.47;2.90;;;39.20;22.10;;;;;;5342838;26;20245;-74
2024/04/14 11:20:57;;;;;;;2.40;1.97;;;38.10;21.70;;;;;;5342289;26;20230;-73
2024/04/14 11:23:23;;;;;;;2.10;1.90;;;37.90;22.70;;;;;;5344378;26;20909;-73
2024/04/14 11:25:49;;;;;;;3.30;2.50;;;38.80;23.30;;;;;;5344602;26;20327;-73
2024/04/14 11:28:15;;;;;;;3.73;3.10;;;40.30;22.40;;;;;;5344350;26;20261;-73
2024/04/14 11:30:42;;;;;;;2.77;2.00;;;41.90;21.60;;;;;;5343903;26;20493;-73
2024/04/14 11:33:08;;;;;;;3.20;2.37;;;43.30;21.80;;;;;;5344342;26;20406;-73
2024/04/14 11:35:33;;;;;;;3.67;2.13;;;44.80;21.50;;;;;;5344204;26;20814;-73
2024/04/14 11:37:59;;;;;;;2.53;2.20;;;45.40;20.60;;;;;;5357443;26;20431;-74
2024/04/14 11:40:25;;;;;;;2.83;2.00;;;44.60;19.80;;;;;;5378433;26;20271;-73
2024/04/14 11:42:52;;;;;;;4.90;2.60;;;42.70;19.80;;;;;;5377770;26;20213;-73
2024/04/14 11:45:18;;;;;;;2.07;1.90;;;40.50;20.30;;;;;;5377384;26;20490;-74
2024/04/14 11:47:45;;;;;;;4.10;2.17;;;37.90;21.30;;;;;;5378590;26;20507;-74
2024/04/14 11:50:11;;;;;;;2.57;1.73;;;36.20;22.60;;;;;;5379905;26;21059;-73
2024/04/14 11:52:37;;;;;;;3.73;2.37;;;35.60;24.50;;;;;;5377275;26;20451;-73
2024/04/14 11:55:04;;;;;;;5.93;3.50;;;37.30;24.90;;;;;;5378777;26;20449;-74
2024/04/14 11:57:30;;;;;;;2.73;2.47;;;38.70;23.60;;;;;;5380117;26;20225;-73
2024/04/14 11:59:55;;;;;;;4.47;2.50;;;39.60;23.50;;;;;;5381954;26;20580;-74
2024/04/14 12:02:21;;;;;;;2.33;1.77;;;38.90;23.00;;;;;;5382401;26;20697;-73
2024/04/14 12:04:48;;;;;;;5.27;1.90;;;37.60;23.30;;;;;;5382588;26;20259;-74
2024/04/14 12:07:14;;;;;;;2.70;2.30;;;36.10;24.10;;;;;;5380463;26;20248;-74
2024/04/14 12:09:40;;;;;;;9.50;2.70;;;34.50;24.90;;;;;;5381848;26;20467;-74
2024/04/14 12:12:06;;;;;;;3.30;2.37;;;32.90;26.10;;;;;;5382180;26;20447;-73
2024/04/14 12:14:31;;;;;;;3.27;2.13;;;31.50;27.10;;;;;;5382202;26;20217;-73
2024/04/14 12:16:57;;;;;;;4.80;2.60;;;30.40;28.30;;;;;;5382191;26;20490;-73
2024/04/14 12:19:24;;;;;;;2.77;2.20;;;29.70;29.50;;;;;;5381513;26;20261;-73
2024/04/14 12:21:49;;;;;;;4.20;2.43;;;29.20;30.10;;;;;;5382060;26;20285;-73
2024/04/14 12:24:17;;;;;;;6.73;3.27;;;28.80;30.60;;;;;;5381955;26;20451;-74
2024/04/14 12:26:42;;;;;;;5.40;2.23;;;28.30;31.60;;;;;;5382069;26;20716;-74
2024/04/14 12:29:08;;;;;;;3.67;3.23;;;28.10;32.20;;;;;;5380161;26;20460;-74
2024/04/14 12:31:33;;;;;;;3.00;2.73;;;27.70;32.70;;;;;;5379834;26;20739;-74
2024/04/14 12:33:59;;;;;;;3.00;2.40;;;27.20;33.20;;;;;;5380152;26;20252;-74
2024/04/14 12:36:24;;;;;;;3.77;2.20;;;26.60;33.90;;;;;;5381876;26;20260;-74
2024/04/14 12:38:50;;;;;;;2.63;2.30;;;26.20;34.70;;;;;;5381715;26;20724;-73
2024/04/14 12:41:16;;;;;;;4.63;2.47;;;26.30;35.60;;;;;;5381456;26;20252;-73